sensor_id;sensor_type;location;lat;lon;timestamp;temperature;humidity
4826;DHT22;2427;50.934;6.776;2022-10-22T00:01:32;14.90;99.90
4826;DHT22;2427;50.934;6.776;2022-10-22T00:03:57;15.00;99.90
4826;DHT22;2427;50.934;6.776;2022-10-22T00:06:23;15.10;99.90
4826;DHT22;2427;50.934;6.776;2022-10-22T00:08:48;15.10;99.90
4826;DHT22;2427;50.934;6.776;2022-10-22T00:11:16;15.10;98.40
4826;DHT22;2427;50.934;6.776;2022-10-22T00:13:43;15.10;93.20
4826;DHT22;2427;50.934;6.776;2022-10-22T00:16:09;15.20;88.60
4826;DHT22;2427;50.934;6.776;2022-10-22T00:18:35;15.20;87.20
4826;DHT22;2427;50.934;6.776;2022-10-22T00:21:01;15.20;72.30
4826;DHT22;2427;50.934;6.776;2022-10-22T00:23:27;15.20;70.90
4826;DHT22;2427;50.934;6.776;2022-10-22T00:25:53;15.10;68.30
4826;DHT22;2427;50.934;6.776;2022-10-22T00:28:19;15.10;79.50
4826;DHT22;2427;50.934;6.776;2022-10-22T00:30:45;15.10;69.10
4826;DHT22;2427;50.934;6.776;2022-10-22T00:33:11;15.10;76.40
4826;DHT22;2427;50.934;6.776;2022-10-22T00:35:36;15.10;77.70
4826;DHT22;2427;50.934;6.776;2022-10-22T00:38:02;15.10;86.20
4826;DHT22;2427;50.934;6.776;2022-10-22T00:40:28;15.10;89.20
4826;DHT22;2427;50.934;6.776;2022-10-22T00:42:53;15.20;92.20
4826;DHT22;2427;50.934;6.776;2022-10-22T00:45:22;15.30;73.10
4826;DHT22;2427;50.934;6.776;2022-10-22T00:50:34;15.30;62.90
4826;DHT22;2427;50.934;6.776;2022-10-22T00:53:01;15.30;56.80
4826;DHT22;2427;50.934;6.776;2022-10-22T00:55:28;15.30;52.80
4826;DHT22;2427;50.934;6.776;2022-10-22T00:57:55;15.30;59.70
4826;DHT22;2427;50.934;6.776;2022-10-22T01:13:32;15.10;68.50
4826;DHT22;2427;50.934;6.776;2022-10-22T01:16:09;15.00;75.50
4826;DHT22;2427;50.934;6.776;2022-10-22T01:19:11;14.90;83.60
4826;DHT22;2427;50.934;6.776;2022-10-22T01:21:45;14.90;94.20
4826;DHT22;2427;50.934;6.776;2022-10-22T01:29:42;14.70;99.90
4826;DHT22;2427;50.934;6.776;2022-10-22T01:32:11;14.70;99.90
4826;DHT22;2427;50.934;6.776;2022-10-22T01:34:40;14.60;99.90
4826;DHT22;2427;50.934;6.776;2022-10-22T01:37:08;14.60;99.90
4826;DHT22;2427;50.934;6.776;2022-10-22T01:39:35;14.50;99.90
4826;DHT22;2427;50.934;6.776;2022-10-22T01:42:03;14.40;99.90
4826;DHT22;2427;50.934;6.776;2022-10-22T01:44:34;14.40;99.90
4826;DHT22;2427;50.934;6.776;2022-10-22T01:55:58;14.20;99.90
4826;DHT22;2427;50.934;6.776;2022-10-22T01:58:41;14.20;99.90
4826;DHT22;2427;50.934;6.776;2022-10-22T02:04:12;14.20;99.90
4826;DHT22;2427;50.934;6.776;2022-10-22T02:06:40;14.20;99.90
4826;DHT22;2427;50.934;6.776;2022-10-22T02:09:08;14.10;99.90
4826;DHT22;2427;50.934;6.776;2022-10-22T02:11:34;14.10;99.90
4826;DHT22;2427;50.934;6.776;2022-10-22T02:14:02;14.10;99.90
4826;DHT22;2427;50.934;6.776;2022-10-22T02:16:34;14.10;99.90
4826;DHT22;2427;50.934;6.776;2022-10-22T02:19:04;14.10;99.90
4826;DHT22;2427;50.934;6.776;2022-10-22T02:21:31;14.00;99.90
4826;DHT22;2427;50.934;6.776;2022-10-22T02:23:57;14.00;99.90
4826;DHT22;2427;50.934;6.776;2022-10-22T02:27:24;14.00;99.90
4826;DHT22;2427;50.934;6.776;2022-10-22T02:29:25;13.90;99.90
4826;DHT22;2427;50.934;6.776;2022-10-22T02:31:55;13.90;99.90
4826;DHT22;2427;50.934;6.776;2022-10-22T02:34:25;13.90;99.90
4826;DHT22;2427;50.934;6.776;2022-10-22T02:36:53;13.90;99.90
4826;DHT22;2427;50.934;6.776;2022-10-22T02:39:20;13.90;99.90
4826;DHT22;2427;50.934;6.776;2022-10-22T02:41:46;13.90;99.90
4826;DHT22;2427;50.934;6.776;2022-10-22T02:44:12;13.80;99.90
4826;DHT22;2427;50.934;6.776;2022-10-22T02:46:38;13.80;99.90
4826;DHT22;2427;50.934;6.776;2022-10-22T02:49:05;13.80;99.90
4826;DHT22;2427;50.934;6.776;2022-10-22T02:51:30;13.70;99.90
4826;DHT22;2427;50.934;6.776;2022-10-22T02:53:56;13.60;99.90
4826;DHT22;2427;50.934;6.776;2022-10-22T02:56:21;13.60;99.90
4826;DHT22;2427;50.934;6.776;2022-10-22T02:58:47;13.50;99.90
4826;DHT22;2427;50.934;6.776;2022-10-22T03:01:12;13.50;99.90
4826;DHT22;2427;50.934;6.776;2022-10-22T03:03:38;13.50;99.90
4826;DHT22;2427;50.934;6.776;2022-10-22T03:06:03;13.40;99.90
4826;DHT22;2427;50.934;6.776;2022-10-22T03:08:29;13.40;99.90
4826;DHT22;2427;50.934;6.776;2022-10-22T03:10:55;13.30;99.90
4826;DHT22;2427;50.934;6.776;2022-10-22T03:13:20;13.30;99.90
4826;DHT22;2427;50.934;6.776;2022-10-22T03:15:49;13.30;99.90
4826;DHT22;2427;50.934;6.776;2022-10-22T03:18:15;13.20;99.90
4826;DHT22;2427;50.934;6.776;2022-10-22T03:20:41;13.20;99.90
4826;DHT22;2427;50.934;6.776;2022-10-22T03:23:07;13.10;99.90
4826;DHT22;2427;50.934;6.776;2022-10-22T03:25:33;13.10;99.90
4826;DHT22;2427;50.934;6.776;2022-10-22T03:28:02;13.10;99.90
4826;DHT22;2427;50.934;6.776;2022-10-22T03:30:29;13.00;99.90
4826;DHT22;2427;50.934;6.776;2022-10-22T03:32:55;13.00;99.90
4826;DHT22;2427;50.934;6.776;2022-10-22T03:35:20;13.00;99.90
4826;DHT22;2427;50.934;6.776;2022-10-22T03:37:46;12.90;99.90
4826;DHT22;2427;50.934;6.776;2022-10-22T03:40:12;12.90;99.90
4826;DHT22;2427;50.934;6.776;2022-10-22T03:42:39;12.80;99.90
4826;DHT22;2427;50.934;6.776;2022-10-22T03:45:06;12.80;99.90
4826;DHT22;2427;50.934;6.776;2022-10-22T03:47:32;12.80;99.90
4826;DHT22;2427;50.934;6.776;2022-10-22T03:49:57;12.70;99.90
4826;DHT22;2427;50.934;6.776;2022-10-22T03:52:23;12.80;99.90
4826;DHT22;2427;50.934;6.776;2022-10-22T03:54:48;12.70;99.90
4826;DHT22;2427;50.934;6.776;2022-10-22T03:57:14;12.70;99.90
4826;DHT22;2427;50.934;6.776;2022-10-22T03:59:44;12.70;99.90
4826;DHT22;2427;50.934;6.776;2022-10-22T04:02:11;12.80;99.90
4826;DHT22;2427;50.934;6.776;2022-10-22T04:04:38;12.70;99.90
4826;DHT22;2427;50.934;6.776;2022-10-22T04:07:04;12.80;99.90
4826;DHT22;2427;50.934;6.776;2022-10-22T04:09:31;12.70;99.90
4826;DHT22;2427;50.934;6.776;2022-10-22T04:11:57;12.70;99.90
4826;DHT22;2427;50.934;6.776;2022-10-22T04:14:23;12.80;99.90
4826;DHT22;2427;50.934;6.776;2022-10-22T04:16:48;12.80;99.90
4826;DHT22;2427;50.934;6.776;2022-10-22T04:19:14;12.90;99.90
4826;DHT22;2427;50.934;6.776;2022-10-22T04:21:40;12.90;99.90
4826;DHT22;2427;50.934;6.776;2022-10-22T04:24:05;12.90;99.90
4826;DHT22;2427;50.934;6.776;2022-10-22T04:26:31;12.80;99.90
4826;DHT22;2427;50.934;6.776;2022-10-22T04:28:56;12.90;99.90
4826;DHT22;2427;50.934;6.776;2022-10-22T04:31:23;12.90;99.90
4826;DHT22;2427;50.934;6.776;2022-10-22T04:33:54;12.90;99.90
4826;DHT22;2427;50.934;6.776;2022-10-22T04:36:20;12.90;99.90
4826;DHT22;2427;50.934;6.776;2022-10-22T04:38:46;13.00;99.90
4826;DHT22;2427;50.934;6.776;2022-10-22T04:41:18;13.00;99.90
4826;DHT22;2427;50.934;6.776;2022-10-22T04:43:45;13.00;99.90
4826;DHT22;2427;50.934;6.776;2022-10-22T04:46:11;13.00;99.90
4826;DHT22;2427;50.934;6.776;2022-10-22T04:48:39;13.00;99.90
4826;DHT22;2427;50.934;6.776;2022-10-22T04:51:06;13.00;99.90
4826;DHT22;2427;50.934;6.776;2022-10-22T04:53:33;13.10;99.90
4826;DHT22;2427;50.934;6.776;2022-10-22T04:58:42;13.10;99.90
4826;DHT22;2427;50.934;6.776;2022-10-22T05:01:13;13.20;99.90
4826;DHT22;2427;50.934;6.776;2022-10-22T05:03:39;13.20;99.90
4826;DHT22;2427;50.934;6.776;2022-10-22T05:06:05;13.30;99.90
4826;DHT22;2427;50.934;6.776;2022-10-22T05:08:30;13.30;99.90
4826;DHT22;2427;50.934;6.776;2022-10-22T05:10:56;13.30;99.90
4826;DHT22;2427;50.934;6.776;2022-10-22T05:13:21;13.30;99.90
4826;DHT22;2427;50.934;6.776;2022-10-22T05:15:47;13.30;99.90
4826;DHT22;2427;50.934;6.776;2022-10-22T05:18:12;13.30;99.90
4826;DHT22;2427;50.934;6.776;2022-10-22T05:20:39;13.20;99.90
4826;DHT22;2427;50.934;6.776;2022-10-22T05:23:05;13.10;99.90
4826;DHT22;2427;50.934;6.776;2022-10-22T05:25:31;13.00;99.90
4826;DHT22;2427;50.934;6.776;2022-10-22T05:28:00;12.90;99.90
4826;DHT22;2427;50.934;6.776;2022-10-22T05:30:26;12.80;99.90
4826;DHT22;2427;50.934;6.776;2022-10-22T05:32:51;12.80;99.90
4826;DHT22;2427;50.934;6.776;2022-10-22T05:35:17;12.80;99.90
4826;DHT22;2427;50.934;6.776;2022-10-22T05:37:42;12.90;99.90
4826;DHT22;2427;50.934;6.776;2022-10-22T05:40:08;12.90;99.90
4826;DHT22;2427;50.934;6.776;2022-10-22T05:42:34;13.00;99.90
4826;DHT22;2427;50.934;6.776;2022-10-22T05:44:59;13.00;99.90
4826;DHT22;2427;50.934;6.776;2022-10-22T05:47:25;13.00;99.90
4826;DHT22;2427;50.934;6.776;2022-10-22T05:49:53;13.10;99.90
4826;DHT22;2427;50.934;6.776;2022-10-22T05:52:21;13.20;99.90
4826;DHT22;2427;50.934;6.776;2022-10-22T05:54:47;13.30;99.90
4826;DHT22;2427;50.934;6.776;2022-10-22T05:57:13;13.40;99.90
4826;DHT22;2427;50.934;6.776;2022-10-22T05:59:38;13.50;99.90
4826;DHT22;2427;50.934;6.776;2022-10-22T06:02:04;13.50;99.90
4826;DHT22;2427;50.934;6.776;2022-10-22T06:04:29;13.50;99.90
4826;DHT22;2427;50.934;6.776;2022-10-22T06:06:55;13.50;99.90
4826;DHT22;2427;50.934;6.776;2022-10-22T06:09:30;13.50;99.90
4826;DHT22;2427;50.934;6.776;2022-10-22T06:11:57;13.50;99.90
4826;DHT22;2427;50.934;6.776;2022-10-22T06:14:23;13.50;99.90
4826;DHT22;2427;50.934;6.776;2022-10-22T06:16:49;13.50;99.90
4826;DHT22;2427;50.934;6.776;2022-10-22T06:19:17;13.50;99.90
4826;DHT22;2427;50.934;6.776;2022-10-22T06:21:43;13.50;99.90
4826;DHT22;2427;50.934;6.776;2022-10-22T06:24:10;13.50;99.90
4826;DHT22;2427;50.934;6.776;2022-10-22T06:26:36;13.50;99.90
4826;DHT22;2427;50.934;6.776;2022-10-22T06:29:02;13.50;99.70
4826;DHT22;2427;50.934;6.776;2022-10-22T06:31:29;13.50;90.90
4826;DHT22;2427;50.934;6.776;2022-10-22T06:34:05;13.50;84.00
4826;DHT22;2427;50.934;6.776;2022-10-22T06:36:31;13.50;82.90
4826;DHT22;2427;50.934;6.776;2022-10-22T06:38:57;13.50;68.50
4826;DHT22;2427;50.934;6.776;2022-10-22T06:41:23;13.50;57.90
4826;DHT22;2427;50.934;6.776;2022-10-22T06:43:49;13.40;59.30
4826;DHT22;2427;50.934;6.776;2022-10-22T06:46:20;13.40;59.60
4826;DHT22;2427;50.934;6.776;2022-10-22T06:49:04;13.40;59.60
4826;DHT22;2427;50.934;6.776;2022-10-22T06:51:30;13.40;63.10
4826;DHT22;2427;50.934;6.776;2022-10-22T06:53:56;13.40;51.20
4826;DHT22;2427;50.934;6.776;2022-10-22T06:56:24;13.40;55.60
4826;DHT22;2427;50.934;6.776;2022-10-22T06:58:53;13.40;48.80
4826;DHT22;2427;50.934;6.776;2022-10-22T07:01:23;13.40;39.10
4826;DHT22;2427;50.934;6.776;2022-10-22T07:03:50;13.40;26.10
4826;DHT22;2427;50.934;6.776;2022-10-22T07:06:16;13.50;4.00
4826;DHT22;2427;50.934;6.776;2022-10-22T07:08:42;13.50;1.00
4826;DHT22;2427;50.934;6.776;2022-10-22T07:11:16;13.60;1.00
4826;DHT22;2427;50.934;6.776;2022-10-22T07:13:43;13.70;1.00
4826;DHT22;2427;50.934;6.776;2022-10-22T07:16:09;13.80;1.00
4826;DHT22;2427;50.934;6.776;2022-10-22T07:18:36;13.90;1.00
4826;DHT22;2427;50.934;6.776;2022-10-22T07:21:03;14.00;1.00
4826;DHT22;2427;50.934;6.776;2022-10-22T07:23:29;14.10;1.00
4826;DHT22;2427;50.934;6.776;2022-10-22T07:25:54;14.20;1.00
4826;DHT22;2427;50.934;6.776;2022-10-22T07:28:20;14.30;1.00
4826;DHT22;2427;50.934;6.776;2022-10-22T07:30:46;14.40;1.00
4826;DHT22;2427;50.934;6.776;2022-10-22T07:33:12;14.60;1.00
4826;DHT22;2427;50.934;6.776;2022-10-22T07:35:38;14.70;1.00
4826;DHT22;2427;50.934;6.776;2022-10-22T07:38:05;14.80;1.00
4826;DHT22;2427;50.934;6.776;2022-10-22T07:40:31;14.80;1.00
4826;DHT22;2427;50.934;6.776;2022-10-22T07:42:57;14.80;1.00
4826;DHT22;2427;50.934;6.776;2022-10-22T07:45:23;14.80;1.00
4826;DHT22;2427;50.934;6.776;2022-10-22T07:47:48;14.90;1.00
4826;DHT22;2427;50.934;6.776;2022-10-22T07:50:14;14.90;1.00
4826;DHT22;2427;50.934;6.776;2022-10-22T07:52:40;15.00;1.00
4826;DHT22;2427;50.934;6.776;2022-10-22T07:55:06;15.10;1.00
4826;DHT22;2427;50.934;6.776;2022-10-22T07:57:32;15.10;99.90
4826;DHT22;2427;50.934;6.776;2022-10-22T07:59:57;15.20;99.90
4826;DHT22;2427;50.934;6.776;2022-10-22T08:02:24;15.30;99.90
4826;DHT22;2427;50.934;6.776;2022-10-22T08:04:50;15.40;99.90
4826;DHT22;2427;50.934;6.776;2022-10-22T08:07:17;15.40;99.90
4826;DHT22;2427;50.934;6.776;2022-10-22T08:09:42;15.50;99.90
4826;DHT22;2427;50.934;6.776;2022-10-22T08:12:08;15.50;99.90
4826;DHT22;2427;50.934;6.776;2022-10-22T08:14:33;15.50;99.90
4826;DHT22;2427;50.934;6.776;2022-10-22T08:16:59;15.60;99.90
4826;DHT22;2427;50.934;6.776;2022-10-22T08:19:24;15.60;99.90
4826;DHT22;2427;50.934;6.776;2022-10-22T08:21:50;15.60;99.90
4826;DHT22;2427;50.934;6.776;2022-10-22T08:24:17;15.60;99.90
4826;DHT22;2427;50.934;6.776;2022-10-22T08:26:42;15.70;99.90
4826;DHT22;2427;50.934;6.776;2022-10-22T08:29:08;15.70;99.90
4826;DHT22;2427;50.934;6.776;2022-10-22T08:31:33;15.90;99.90
4826;DHT22;2427;50.934;6.776;2022-10-22T08:33:59;16.00;99.90
4826;DHT22;2427;50.934;6.776;2022-10-22T08:36:25;16.10;42.90
4826;DHT22;2427;50.934;6.776;2022-10-22T08:38:50;16.20;1.00
4826;DHT22;2427;50.934;6.776;2022-10-22T08:41:19;16.30;21.60
4826;DHT22;2427;50.934;6.776;2022-10-22T08:46:59;16.30;1.00
4826;DHT22;2427;50.934;6.776;2022-10-22T08:49:33;16.40;99.90
4826;DHT22;2427;50.934;6.776;2022-10-22T08:51:59;16.40;99.90
4826;DHT22;2427;50.934;6.776;2022-10-22T08:54:53;16.50;99.90
4826;DHT22;2427;50.934;6.776;2022-10-22T08:58:05;16.50;99.90
4826;DHT22;2427;50.934;6.776;2022-10-22T09:00:17;16.60;19.80
4826;DHT22;2427;50.934;6.776;2022-10-22T09:05:40;16.60;1.00
4826;DHT22;2427;50.934;6.776;2022-10-22T09:08:11;16.60;1.00
4826;DHT22;2427;50.934;6.776;2022-10-22T09:10:42;16.70;1.00
4826;DHT22;2427;50.934;6.776;2022-10-22T09:13:14;16.80;1.00
4826;DHT22;2427;50.934;6.776;2022-10-22T09:15:40;16.80;1.00
4826;DHT22;2427;50.934;6.776;2022-10-22T09:21:12;16.80;99.90
4826;DHT22;2427;50.934;6.776;2022-10-22T09:23:59;16.80;99.90
4826;DHT22;2427;50.934;6.776;2022-10-22T09:26:27;16.80;99.90
4826;DHT22;2427;50.934;6.776;2022-10-22T09:28:52;16.80;99.90
4826;DHT22;2427;50.934;6.776;2022-10-22T09:31:18;16.80;99.90
4826;DHT22;2427;50.934;6.776;2022-10-22T09:33:46;16.80;99.90
4826;DHT22;2427;50.934;6.776;2022-10-22T09:36:21;16.70;99.90
4826;DHT22;2427;50.934;6.776;2022-10-22T09:38:49;16.70;99.90
4826;DHT22;2427;50.934;6.776;2022-10-22T09:41:18;16.80;1.00
4826;DHT22;2427;50.934;6.776;2022-10-22T09:43:48;16.80;1.00
4826;DHT22;2427;50.934;6.776;2022-10-22T09:46:20;16.80;1.00
4826;DHT22;2427;50.934;6.776;2022-10-22T09:51:57;16.70;1.00
4826;DHT22;2427;50.934;6.776;2022-10-22T09:57:04;16.60;1.00
4826;DHT22;2427;50.934;6.776;2022-10-22T09:59:32;16.60;1.00
4826;DHT22;2427;50.934;6.776;2022-10-22T10:05:05;16.60;1.00
4826;DHT22;2427;50.934;6.776;2022-10-22T10:07:31;16.60;1.00
4826;DHT22;2427;50.934;6.776;2022-10-22T10:09:58;16.60;1.00
4826;DHT22;2427;50.934;6.776;2022-10-22T10:12:32;16.60;1.00
4826;DHT22;2427;50.934;6.776;2022-10-22T10:21:30;16.40;1.00
4826;DHT22;2427;50.934;6.776;2022-10-22T10:24:22;16.50;1.00
4826;DHT22;2427;50.934;6.776;2022-10-22T10:26:38;16.40;1.00
4826;DHT22;2427;50.934;6.776;2022-10-22T10:32:29;16.40;1.00
4826;DHT22;2427;50.934;6.776;2022-10-22T10:37:42;16.40;1.00
4826;DHT22;2427;50.934;6.776;2022-10-22T10:48:03;16.40;1.00
4826;DHT22;2427;50.934;6.776;2022-10-22T10:51:05;16.40;1.00
4826;DHT22;2427;50.934;6.776;2022-10-22T10:59:00;16.60;99.90
4826;DHT22;2427;50.934;6.776;2022-10-22T11:04:13;16.70;99.90
4826;DHT22;2427;50.934;6.776;2022-10-22T11:06:45;16.70;99.90
4826;DHT22;2427;50.934;6.776;2022-10-22T11:09:35;16.70;99.90
4826;DHT22;2427;50.934;6.776;2022-10-22T11:12:07;16.70;99.90
4826;DHT22;2427;50.934;6.776;2022-10-22T11:14:58;16.70;99.90
4826;DHT22;2427;50.934;6.776;2022-10-22T11:17:43;16.80;99.90
4826;DHT22;2427;50.934;6.776;2022-10-22T11:23:04;16.70;99.90
4826;DHT22;2427;50.934;6.776;2022-10-22T11:25:33;16.70;99.90
4826;DHT22;2427;50.934;6.776;2022-10-22T11:30:41;16.70;99.90
4826;DHT22;2427;50.934;6.776;2022-10-22T11:33:15;16.70;99.90
4826;DHT22;2427;50.934;6.776;2022-10-22T11:35:44;16.60;99.90
4826;DHT22;2427;50.934;6.776;2022-10-22T11:38:14;16.70;99.90
4826;DHT22;2427;50.934;6.776;2022-10-22T11:41:05;16.60;99.90
4826;DHT22;2427;50.934;6.776;2022-10-22T11:48:42;16.60;99.90
4826;DHT22;2427;50.934;6.776;2022-10-22T11:51:46;16.60;99.90
4826;DHT22;2427;50.934;6.776;2022-10-22T11:54:38;16.70;99.90
4826;DHT22;2427;50.934;6.776;2022-10-22T11:57:19;16.80;99.90
4826;DHT22;2427;50.934;6.776;2022-10-22T12:02:41;16.90;99.90
4826;DHT22;2427;50.934;6.776;2022-10-22T12:07:58;17.00;99.90
4826;DHT22;2427;50.934;6.776;2022-10-22T12:10:27;17.00;99.90
4826;DHT22;2427;50.934;6.776;2022-10-22T12:12:56;17.20;99.90
4826;DHT22;2427;50.934;6.776;2022-10-22T12:15:25;17.50;99.90
4826;DHT22;2427;50.934;6.776;2022-10-22T12:17:59;17.70;99.90
4826;DHT22;2427;50.934;6.776;2022-10-22T12:20:26;17.90;57.30
4826;DHT22;2427;50.934;6.776;2022-10-22T12:22:52;18.10;39.50
4826;DHT22;2427;50.934;6.776;2022-10-22T12:25:28;18.40;21.80
4826;DHT22;2427;50.934;6.776;2022-10-22T12:27:57;18.60;1.00
4826;DHT22;2427;50.934;6.776;2022-10-22T12:30:25;19.00;1.00
4826;DHT22;2427;50.934;6.776;2022-10-22T12:32:57;19.10;1.00
4826;DHT22;2427;50.934;6.776;2022-10-22T12:35:27;19.70;1.00
4826;DHT22;2427;50.934;6.776;2022-10-22T12:38:20;22.10;1.00
4826;DHT22;2427;50.934;6.776;2022-10-22T12:40:47;25.70;99.90
4826;DHT22;2427;50.934;6.776;2022-10-22T12:43:35;28.00;99.90
4826;DHT22;2427;50.934;6.776;2022-10-22T12:46:00;29.70;99.90
4826;DHT22;2427;50.934;6.776;2022-10-22T12:48:30;30.40;99.90
4826;DHT22;2427;50.934;6.776;2022-10-22T12:51:00;30.10;99.90
4826;DHT22;2427;50.934;6.776;2022-10-22T12:53:35;29.20;99.90
4826;DHT22;2427;50.934;6.776;2022-10-22T12:56:10;29.00;99.90
4826;DHT22;2427;50.934;6.776;2022-10-22T12:58:41;28.60;99.90
4826;DHT22;2427;50.934;6.776;2022-10-22T13:01:10;29.00;99.90
4826;DHT22;2427;50.934;6.776;2022-10-22T13:03:42;28.00;99.90
4826;DHT22;2427;50.934;6.776;2022-10-22T13:08:44;27.70;99.90
4826;DHT22;2427;50.934;6.776;2022-10-22T13:11:19;27.40;99.90
4826;DHT22;2427;50.934;6.776;2022-10-22T13:13:45;27.70;99.90
4826;DHT22;2427;50.934;6.776;2022-10-22T13:16:20;26.80;99.90
4826;DHT22;2427;50.934;6.776;2022-10-22T13:18:49;25.40;99.90
4826;DHT22;2427;50.934;6.776;2022-10-22T13:21:32;24.00;99.90
4826;DHT22;2427;50.934;6.776;2022-10-22T13:24:01;24.10;99.90
4826;DHT22;2427;50.934;6.776;2022-10-22T13:26:35;25.40;99.90
4826;DHT22;2427;50.934;6.776;2022-10-22T13:29:02;26.20;99.90
4826;DHT22;2427;50.934;6.776;2022-10-22T13:31:33;27.50;99.90
4826;DHT22;2427;50.934;6.776;2022-10-22T13:34:04;28.70;99.90
4826;DHT22;2427;50.934;6.776;2022-10-22T13:36:31;29.70;99.90
4826;DHT22;2427;50.934;6.776;2022-10-22T13:38:57;30.60;99.90
4826;DHT22;2427;50.934;6.776;2022-10-22T13:43:49;31.40;99.90
4826;DHT22;2427;50.934;6.776;2022-10-22T13:46:15;30.10;99.90
4826;DHT22;2427;50.934;6.776;2022-10-22T13:48:42;28.70;99.90
4826;DHT22;2427;50.934;6.776;2022-10-22T13:51:20;27.30;99.90
4826;DHT22;2427;50.934;6.776;2022-10-22T13:53:46;25.90;99.90
4826;DHT22;2427;50.934;6.776;2022-10-22T13:56:14;25.00;99.90
4826;DHT22;2427;50.934;6.776;2022-10-22T13:58:41;25.50;99.90
4826;DHT22;2427;50.934;6.776;2022-10-22T14:01:22;27.40;99.90
4826;DHT22;2427;50.934;6.776;2022-10-22T14:03:50;30.00;99.90
4826;DHT22;2427;50.934;6.776;2022-10-22T14:06:18;31.80;99.90
4826;DHT22;2427;50.934;6.776;2022-10-22T14:08:46;32.90;99.90
4826;DHT22;2427;50.934;6.776;2022-10-22T14:11:13;32.70;99.90
4826;DHT22;2427;50.934;6.776;2022-10-22T14:13:39;30.90;99.90
4826;DHT22;2427;50.934;6.776;2022-10-22T14:16:06;29.10;99.90
4826;DHT22;2427;50.934;6.776;2022-10-22T14:18:33;27.30;99.90
4826;DHT22;2427;50.934;6.776;2022-10-22T14:21:01;25.80;99.90
4826;DHT22;2427;50.934;6.776;2022-10-22T14:23:33;24.70;99.90
4826;DHT22;2427;50.934;6.776;2022-10-22T14:25:59;23.60;99.90
4826;DHT22;2427;50.934;6.776;2022-10-22T14:28:25;22.90;99.90
4826;DHT22;2427;50.934;6.776;2022-10-22T14:30:53;22.30;99.90
4826;DHT22;2427;50.934;6.776;2022-10-22T14:33:28;21.90;99.90
4826;DHT22;2427;50.934;6.776;2022-10-22T14:35:54;21.50;99.90
4826;DHT22;2427;50.934;6.776;2022-10-22T14:38:20;21.20;99.90
4826;DHT22;2427;50.934;6.776;2022-10-22T14:40:46;21.00;99.90
4826;DHT22;2427;50.934;6.776;2022-10-22T14:43:21;20.80;99.90
4826;DHT22;2427;50.934;6.776;2022-10-22T14:45:47;20.70;99.90
4826;DHT22;2427;50.934;6.776;2022-10-22T14:48:13;20.60;99.90
4826;DHT22;2427;50.934;6.776;2022-10-22T14:50:40;20.50;99.90
4826;DHT22;2427;50.934;6.776;2022-10-22T14:53:06;20.40;99.90
4826;DHT22;2427;50.934;6.776;2022-10-22T14:55:32;20.40;99.90
4826;DHT22;2427;50.934;6.776;2022-10-22T14:57:57;20.40;99.90
4826;DHT22;2427;50.934;6.776;2022-10-22T15:00:23;20.40;99.90
4826;DHT22;2427;50.934;6.776;2022-10-22T15:02:48;20.20;1.00
4826;DHT22;2427;50.934;6.776;2022-10-22T15:05:15;20.10;1.00
4826;DHT22;2427;50.934;6.776;2022-10-22T15:07:42;19.90;1.00
4826;DHT22;2427;50.934;6.776;2022-10-22T15:10:08;19.80;1.00
4826;DHT22;2427;50.934;6.776;2022-10-22T15:12:34;19.70;1.00
4826;DHT22;2427;50.934;6.776;2022-10-22T15:15:00;19.60;1.00
4826;DHT22;2427;50.934;6.776;2022-10-22T15:17:26;19.50;1.00
4826;DHT22;2427;50.934;6.776;2022-10-22T15:19:52;19.50;1.00
4826;DHT22;2427;50.934;6.776;2022-10-22T15:22:18;19.40;1.00
4826;DHT22;2427;50.934;6.776;2022-10-22T15:24:44;19.30;1.00
4826;DHT22;2427;50.934;6.776;2022-10-22T15:27:16;19.10;1.00
4826;DHT22;2427;50.934;6.776;2022-10-22T15:29:41;19.00;1.00
4826;DHT22;2427;50.934;6.776;2022-10-22T15:32:08;18.80;45.50
4826;DHT22;2427;50.934;6.776;2022-10-22T15:34:39;18.70;99.90
4826;DHT22;2427;50.934;6.776;2022-10-22T15:37:08;18.60;99.90
4826;DHT22;2427;50.934;6.776;2022-10-22T15:39:34;18.40;99.90
4826;DHT22;2427;50.934;6.776;2022-10-22T15:42:00;18.30;99.90
4826;DHT22;2427;50.934;6.776;2022-10-22T15:44:30;18.20;99.90
4826;DHT22;2427;50.934;6.776;2022-10-22T15:46:56;18.10;99.90
4826;DHT22;2427;50.934;6.776;2022-10-22T15:49:24;18.00;1.00
4826;DHT22;2427;50.934;6.776;2022-10-22T15:51:50;17.90;1.00
4826;DHT22;2427;50.934;6.776;2022-10-22T15:54:20;17.90;99.90
4826;DHT22;2427;50.934;6.776;2022-10-22T15:56:46;17.70;1.00
4826;DHT22;2427;50.934;6.776;2022-10-22T15:59:14;17.60;1.00
4826;DHT22;2427;50.934;6.776;2022-10-22T16:01:40;17.40;1.00
4826;DHT22;2427;50.934;6.776;2022-10-22T16:04:06;17.30;1.00
4826;DHT22;2427;50.934;6.776;2022-10-22T16:06:33;17.30;1.00
4826;DHT22;2427;50.934;6.776;2022-10-22T16:09:02;17.20;1.00
4826;DHT22;2427;50.934;6.776;2022-10-22T16:11:29;17.10;1.00
4826;DHT22;2427;50.934;6.776;2022-10-22T16:13:56;16.90;59.40
4826;DHT22;2427;50.934;6.776;2022-10-22T16:16:23;16.90;1.00
4826;DHT22;2427;50.934;6.776;2022-10-22T16:18:50;16.70;92.80
4826;DHT22;2427;50.934;6.776;2022-10-22T16:21:16;16.50;99.90
4826;DHT22;2427;50.934;6.776;2022-10-22T16:23:42;16.40;99.90
4826;DHT22;2427;50.934;6.776;2022-10-22T16:26:08;16.40;99.90
4826;DHT22;2427;50.934;6.776;2022-10-22T16:28:34;16.20;99.90
4826;DHT22;2427;50.934;6.776;2022-10-22T16:31:04;16.10;1.00
4826;DHT22;2427;50.934;6.776;2022-10-22T16:33:31;16.00;1.00
4826;DHT22;2427;50.934;6.776;2022-10-22T16:35:57;16.00;1.00
4826;DHT22;2427;50.934;6.776;2022-10-22T16:38:23;15.90;1.00
4826;DHT22;2427;50.934;6.776;2022-10-22T16:40:49;15.90;24.80
4826;DHT22;2427;50.934;6.776;2022-10-22T16:43:15;15.90;82.90
4826;DHT22;2427;50.934;6.776;2022-10-22T16:45:49;15.80;99.90
4826;DHT22;2427;50.934;6.776;2022-10-22T16:48:16;15.80;99.90
4826;DHT22;2427;50.934;6.776;2022-10-22T16:50:42;15.70;99.90
4826;DHT22;2427;50.934;6.776;2022-10-22T16:53:08;15.70;99.90
4826;DHT22;2427;50.934;6.776;2022-10-22T16:55:37;15.60;99.90
4826;DHT22;2427;50.934;6.776;2022-10-22T16:58:04;15.60;1.00
4826;DHT22;2427;50.934;6.776;2022-10-22T17:00:30;15.50;1.00
4826;DHT22;2427;50.934;6.776;2022-10-22T17:02:55;15.50;1.00
4826;DHT22;2427;50.934;6.776;2022-10-22T17:05:21;15.50;1.00
4826;DHT22;2427;50.934;6.776;2022-10-22T17:07:48;15.50;1.00
4826;DHT22;2427;50.934;6.776;2022-10-22T17:10:14;15.40;1.00
4826;DHT22;2427;50.934;6.776;2022-10-22T17:12:40;15.40;1.00
4826;DHT22;2427;50.934;6.776;2022-10-22T17:15:06;15.40;99.90
4826;DHT22;2427;50.934;6.776;2022-10-22T17:17:32;15.30;99.90
4826;DHT22;2427;50.934;6.776;2022-10-22T17:19:58;15.30;99.90
4826;DHT22;2427;50.934;6.776;2022-10-22T17:22:24;15.30;99.90
4826;DHT22;2427;50.934;6.776;2022-10-22T17:27:38;15.30;1.00
4826;DHT22;2427;50.934;6.776;2022-10-22T17:30:05;15.30;1.00
4826;DHT22;2427;50.934;6.776;2022-10-22T17:32:30;15.30;1.00
4826;DHT22;2427;50.934;6.776;2022-10-22T17:34:59;15.30;1.00
4826;DHT22;2427;50.934;6.776;2022-10-22T17:37:25;15.20;99.90
4826;DHT22;2427;50.934;6.776;2022-10-22T17:39:51;15.20;1.00
4826;DHT22;2427;50.934;6.776;2022-10-22T17:42:17;15.20;1.00
4826;DHT22;2427;50.934;6.776;2022-10-22T17:44:43;15.20;1.00
4826;DHT22;2427;50.934;6.776;2022-10-22T17:47:11;15.20;1.00
4826;DHT22;2427;50.934;6.776;2022-10-22T17:49:38;15.20;1.00
4826;DHT22;2427;50.934;6.776;2022-10-22T17:52:04;15.20;1.00
4826;DHT22;2427;50.934;6.776;2022-10-22T17:54:30;15.20;1.00
4826;DHT22;2427;50.934;6.776;2022-10-22T17:56:55;15.30;99.90
4826;DHT22;2427;50.934;6.776;2022-10-22T17:59:21;15.30;99.90